createdAt,value
2023-03-16T00:02:20.664Z,101069.34
2023-03-16T00:04:48.235Z,101064.06
2023-03-16T00:07:16.084Z,101066.06
2023-03-16T00:09:43.651Z,101071.25
2023-03-16T00:12:16.131Z,101067.97
2023-03-16T00:14:44.788Z,101071.56
2023-03-16T00:17:19.222Z,101069.28
2023-03-16T00:19:48.413Z,101070.31
2023-03-16T00:22:16.372Z,101080.34
2023-03-16T00:24:44.056Z,101079.50
2023-03-16T00:27:14.868Z,101073.22
2023-03-16T00:29:47.305Z,101076.53
2023-03-16T00:32:19.198Z,101077.53
2023-03-16T00:34:47.603Z,101081.41
2023-03-16T00:37:16.941Z,101085.19
2023-03-16T00:39:46.068Z,101084.28
2023-03-16T00:42:15.295Z,101084.31
2023-03-16T00:44:43.187Z,101084.03
2023-03-16T00:47:14.867Z,101085.19
2023-03-16T00:49:43.590Z,101081.09
2023-03-16T00:52:15.663Z,101086.84
2023-03-16T00:54:43.883Z,101093.63
2023-03-16T00:57:12.603Z,101080.28
2023-03-16T00:59:40.175Z,101081.91
2023-03-16T01:02:08.669Z,101087.78
2023-03-16T01:04:36.698Z,101083.78
2023-03-16T01:07:05.047Z,101087.00
2023-03-16T01:09:37.292Z,101089.13
2023-03-16T01:12:10.066Z,101080.59
2023-03-16T01:14:38.058Z,101070.53
2023-03-16T01:17:08.622Z,101072.56
2023-03-16T01:19:37.855Z,101067.06
2023-03-16T01:22:06.557Z,101071.66
2023-03-16T01:24:37.187Z,101065.75
2023-03-16T01:27:05.683Z,101071.78
2023-03-16T01:29:33.808Z,101070.97
2023-03-16T01:32:02.461Z,101073.56
2023-03-16T01:34:30.341Z,101075.22
2023-03-16T01:36:58.131Z,101066.94
2023-03-16T01:39:29.939Z,101061.31
2023-03-16T01:41:57.536Z,101060.84
2023-03-16T01:44:30.795Z,101058.97
2023-03-16T01:47:02.695Z,101062.84
2023-03-16T01:49:33.013Z,101053.31
2023-03-16T01:52:10.399Z,101056.53
2023-03-16T01:54:42.923Z,101057.97
2023-03-16T01:57:13.203Z,101062.25
2023-03-16T01:59:48.624Z,101054.81
2023-03-16T02:02:19.639Z,101058.59
2023-03-16T02:04:54.493Z,101060.63
2023-03-16T02:07:24.856Z,101058.63
2023-03-16T02:09:55.045Z,101052.31
2023-03-16T02:12:24.331Z,101061.59
2023-03-16T02:14:55.358Z,101059.50
2023-03-16T02:17:24.775Z,101069.50
2023-03-16T02:20:09.293Z,101065.13
2023-03-16T02:22:39.722Z,101066.31
2023-03-16T02:25:07.669Z,101061.94
2023-03-16T02:27:50.817Z,101056.00
2023-03-16T02:30:19.022Z,101060.34
2023-03-16T02:32:57.323Z,101058.69
2023-03-16T02:35:25.068Z,101059.03
2023-03-16T02:37:52.860Z,101073.69
2023-03-16T02:40:24.189Z,101058.69
2023-03-16T02:42:56.857Z,101068.28
2023-03-16T02:45:28.166Z,101065.84
2023-03-16T02:47:58.888Z,101070.22
2023-03-16T02:50:26.650Z,101063.38
2023-03-16T02:52:54.406Z,101074.00
2023-03-16T02:55:21.987Z,101072.19
2023-03-16T02:57:49.517Z,101071.34
2023-03-16T03:00:19.508Z,101074.09
2023-03-16T03:02:52.868Z,101074.09
2023-03-16T03:05:21.659Z,101071.53
2023-03-16T03:07:49.202Z,101082.00
2023-03-16T03:10:16.963Z,101074.91
2023-03-16T03:12:44.605Z,101075.47
2023-03-16T03:15:12.176Z,101083.41
2023-03-16T03:17:47.378Z,101071.16
2023-03-16T03:20:17.350Z,101079.72
2023-03-16T03:22:45.924Z,101079.03
2023-03-16T03:25:15.643Z,101087.09
2023-03-16T03:27:43.862Z,101082.13
2023-03-16T03:30:15.930Z,101085.53
2023-03-16T03:32:44.607Z,101088.97
2023-03-16T03:35:13.417Z,101093.25
2023-03-16T03:37:42.776Z,101089.25
2023-03-16T03:40:12.116Z,101090.66
2023-03-16T03:42:41.732Z,101092.53
2023-03-16T03:45:13.083Z,101097.34
2023-03-16T03:47:43.206Z,101101.47
2023-03-16T03:50:14.775Z,101105.66
2023-03-16T03:52:55.496Z,101108.41
2023-03-16T03:55:23.072Z,101111.78
2023-03-16T03:57:51.101Z,101110.28
2023-03-16T04:00:22.366Z,101119.91
2023-03-16T04:02:50.284Z,101116.28
2023-03-16T04:05:30.880Z,101120.78
2023-03-16T04:07:58.398Z,101121.25
2023-03-16T04:10:30.228Z,101116.75
2023-03-16T04:12:59.424Z,101126.16
2023-03-16T04:15:28.555Z,101131.59
2023-03-16T04:18:08.794Z,101137.88
2023-03-16T04:20:37.318Z,101132.69
2023-03-16T04:23:05.589Z,101143.00
2023-03-16T04:25:38.942Z,101142.31
2023-03-16T04:28:07.579Z,101144.91
2023-03-16T04:30:37.625Z,101148.19
2023-03-16T04:33:35.561Z,101141.84
2023-03-16T04:36:04.112Z,101151.44
2023-03-16T04:38:36.591Z,101142.53
2023-03-16T04:41:05.159Z,101156.44
2023-03-16T04:43:40.607Z,101156.13
2023-03-16T04:46:18.712Z,101154.28
2023-03-16T04:48:46.367Z,101158.78
2023-03-16T04:51:13.959Z,101156.25
2023-03-16T04:53:47.977Z,101159.19
2023-03-16T04:56:31.642Z,101160.16
2023-03-16T04:59:03.767Z,101164.97
2023-03-16T05:01:40.328Z,101167.09
2023-03-16T05:04:08.152Z,101158.91
2023-03-16T05:06:38.253Z,101165.47
2023-03-16T05:09:08.799Z,101165.03
2023-03-16T05:11:38.549Z,101170.72
2023-03-16T05:14:09.687Z,101181.50
2023-03-16T05:16:50.076Z,101176.72
2023-03-16T05:19:17.645Z,101182.59
2023-03-16T05:21:45.945Z,101184.78
2023-03-16T05:24:13.486Z,101184.00
2023-03-16T05:26:41.236Z,101188.78
2023-03-16T05:29:12.155Z,101195.06
2023-03-16T05:31:39.885Z,101198.81
2023-03-16T05:34:13.166Z,101198.56
2023-03-16T05:36:40.666Z,101204.78
2023-03-16T05:39:13.459Z,101196.09
2023-03-16T05:41:48.000Z,101207.19
2023-03-16T05:44:41.524Z,101209.72
2023-03-16T05:47:21.009Z,101211.50
2023-03-16T05:49:53.880Z,101216.94
2023-03-16T05:52:26.680Z,101211.19
2023-03-16T05:54:56.454Z,101218.34
2023-03-16T05:57:24.009Z,101223.66
2023-03-16T05:59:53.108Z,101223.66
2023-03-16T06:02:22.052Z,101224.41
2023-03-16T06:04:49.749Z,101229.19
2023-03-16T06:07:17.248Z,101230.31
2023-03-16T06:09:45.347Z,101233.91
2023-03-16T06:12:16.419Z,101241.75
2023-03-16T06:14:44.401Z,101247.22
2023-03-16T06:17:12.184Z,101246.66
2023-03-16T06:19:41.884Z,101244.03
2023-03-16T06:22:09.595Z,101250.66
2023-03-16T06:24:37.236Z,101250.25
2023-03-16T06:27:04.826Z,101254.25
2023-03-16T06:29:42.253Z,101261.63
2023-03-16T06:32:10.023Z,101259.06
2023-03-16T06:34:38.351Z,101271.72
2023-03-16T06:37:07.627Z,101272.78
2023-03-16T06:39:35.166Z,101280.34
2023-03-16T06:42:04.696Z,101278.25
2023-03-16T06:44:33.062Z,101289.41
2023-03-16T06:47:05.914Z,101300.34
2023-03-16T06:49:33.536Z,101294.00
2023-03-16T06:52:03.565Z,101299.44
2023-03-16T06:54:37.829Z,101304.97
2023-03-16T06:57:06.095Z,101308.81
2023-03-16T06:59:33.791Z,101311.06
2023-03-16T07:02:02.135Z,101311.09
2023-03-16T07:04:29.841Z,101314.94
2023-03-16T07:06:57.426Z,101323.25
2023-03-16T07:09:24.966Z,101330.72
2023-03-16T07:11:53.147Z,101326.25
2023-03-16T07:14:21.244Z,101322.66
2023-03-16T07:16:50.094Z,101330.84
2023-03-16T07:19:18.123Z,101334.78
2023-03-16T07:21:46.014Z,101333.50
2023-03-16T07:24:17.274Z,101345.44
2023-03-16T07:26:46.747Z,101347.66
2023-03-16T07:29:23.929Z,101346.47
2023-03-16T07:31:51.540Z,101349.16
2023-03-16T07:34:22.574Z,101352.13
2023-03-16T07:36:55.459Z,101358.94
2023-03-16T07:39:25.652Z,101354.78
2023-03-16T07:41:59.107Z,101361.13
2023-03-16T07:44:45.342Z,101361.69
2023-03-16T07:47:13.508Z,101357.47
2023-03-16T07:49:42.377Z,101368.63
2023-03-16T07:52:10.775Z,101365.31
2023-03-16T07:54:41.363Z,101367.81
2023-03-16T07:57:10.488Z,101376.34
2023-03-16T07:59:42.160Z,101369.59
2023-03-16T08:02:13.902Z,101381.47
2023-03-16T08:04:46.126Z,101372.69
2023-03-16T08:07:15.697Z,101378.97
2023-03-16T08:10:01.719Z,101381.81
2023-03-16T08:12:39.149Z,101382.47
2023-03-16T08:15:10.329Z,101383.19
2023-03-16T08:17:43.322Z,101382.63
2023-03-16T08:20:16.648Z,101388.72
2023-03-16T08:22:46.939Z,101389.81
2023-03-16T08:25:17.281Z,101392.38
2023-03-16T08:27:58.302Z,101398.81
2023-03-16T08:30:27.464Z,101404.66
2023-03-16T08:33:12.154Z,101389.59
2023-03-16T08:35:42.616Z,101400.50
2023-03-16T08:38:11.132Z,101398.81
2023-03-16T08:40:42.278Z,101404.88
2023-03-16T08:43:11.113Z,101403.06
2023-03-16T08:45:38.842Z,101404.16
2023-03-16T08:48:07.647Z,101409.25
2023-03-16T08:50:35.910Z,101406.97
2023-03-16T08:53:03.430Z,101410.84
2023-03-16T08:55:30.929Z,101414.59
2023-03-16T08:57:58.517Z,101415.69
2023-03-16T09:00:26.519Z,101417.50
2023-03-16T09:02:55.576Z,101428.78
2023-03-16T09:05:23.547Z,101428.53
2023-03-16T09:07:51.607Z,101428.81
2023-03-16T09:10:20.082Z,101432.31
2023-03-16T09:12:52.219Z,101428.66
2023-03-16T09:15:20.985Z,101437.34
2023-03-16T09:17:48.686Z,101436.09
2023-03-16T09:20:34.545Z,101436.31
2023-03-16T09:23:04.891Z,101441.66
2023-03-16T09:25:32.666Z,101441.69
2023-03-16T09:28:02.700Z,101443.84
2023-03-16T09:30:33.220Z,101444.00
2023-03-16T09:33:01.187Z,101444.63
2023-03-16T09:35:36.411Z,101445.47
2023-03-16T09:38:06.437Z,101451.88
2023-03-16T09:40:38.474Z,101446.44
2023-03-16T09:43:07.514Z,101447.97
2023-03-16T09:45:41.996Z,101447.41
2023-03-16T09:48:11.319Z,101450.94
2023-03-16T09:50:48.340Z,101452.09
2023-03-16T09:53:25.924Z,101450.94
2023-03-16T09:55:55.598Z,101453.59
2023-03-16T09:58:25.064Z,101439.59
2023-03-16T10:00:55.572Z,101452.34
2023-03-16T10:03:23.276Z,101453.38
2023-03-16T10:05:56.345Z,101458.44
2023-03-16T10:08:25.954Z,101453.38
2023-03-16T10:11:13.897Z,101461.63
2023-03-16T10:13:44.468Z,101462.69
2023-03-16T10:16:22.506Z,101459.06
2023-03-16T10:18:53.242Z,101455.66
2023-03-16T10:21:21.550Z,101463.06
2023-03-16T10:23:50.176Z,101461.13
2023-03-16T10:26:23.446Z,101461.13
2023-03-16T10:28:55.504Z,101456.31
2023-03-16T10:31:24.590Z,101453.75
2023-03-16T10:33:55.983Z,101455.91
2023-03-16T10:36:29.781Z,101456.47
2023-03-16T10:38:59.840Z,101461.94
2023-03-16T10:41:29.409Z,101465.72
2023-03-16T10:44:10.271Z,101463.56
2023-03-16T10:46:42.010Z,101458.09
2023-03-16T10:49:22.995Z,101463.81
2023-03-16T10:51:51.424Z,101463.53
2023-03-16T10:54:25.024Z,101455.22
2023-03-16T10:57:35.354Z,101459.00
2023-03-16T11:00:15.310Z,101457.06
2023-03-16T11:02:45.941Z,101446.56
2023-03-16T11:05:19.307Z,101444.88
2023-03-16T11:08:05.274Z,101442.50
2023-03-16T11:10:56.114Z,101445.19
2023-03-16T11:13:28.044Z,101438.25
2023-03-16T11:16:02.796Z,101437.97
2023-03-16T11:18:30.415Z,101434.28
2023-03-16T11:21:18.466Z,101437.34
2023-03-16T11:23:55.256Z,101434.56
2023-03-16T11:26:34.146Z,101425.06
2023-03-16T11:29:20.548Z,101430.19
2023-03-16T11:31:56.393Z,101430.56
2023-03-16T11:34:29.078Z,101428.34
2023-03-16T11:37:02.260Z,101429.22
2023-03-16T11:39:32.939Z,101420.47
2023-03-16T11:42:21.098Z,101424.56
2023-03-16T11:44:59.749Z,101410.13
2023-03-16T11:47:30.582Z,101415.31
2023-03-16T11:50:07.927Z,101415.59
2023-03-16T11:52:55.746Z,101411.81
2023-03-16T11:55:29.864Z,101400.06
2023-03-16T11:58:22.482Z,101404.72
2023-03-16T12:01:02.258Z,101404.19
2023-03-16T12:03:55.266Z,101402.00
2023-03-16T12:06:33.527Z,101399.03
2023-03-16T12:09:06.718Z,101404.94
2023-03-16T12:11:41.908Z,101401.22
2023-03-16T12:14:12.707Z,101400.97
2023-03-16T12:16:49.551Z,101393.63
2023-03-16T12:19:30.849Z,101375.59
2023-03-16T12:22:03.216Z,101374.09
2023-03-16T12:24:42.726Z,101368.50
2023-03-16T12:27:19.324Z,101364.66
2023-03-16T12:29:57.152Z,101373.75
2023-03-16T12:32:28.762Z,101371.09
2023-03-16T12:35:00.656Z,101361.69
2023-03-16T12:37:37.476Z,101354.78
2023-03-16T12:40:09.854Z,101361.06
2023-03-16T12:42:43.452Z,101352.78
2023-03-16T12:45:17.873Z,101355.41
2023-03-16T12:47:52.548Z,101346.84
2023-03-16T12:50:20.834Z,101353.03
2023-03-16T12:52:50.273Z,101347.16
2023-03-16T12:55:18.475Z,101346.22
2023-03-16T12:57:47.204Z,101340.75
2023-03-16T13:00:15.834Z,101346.88
2023-03-16T13:02:56.195Z,101349.50
2023-03-16T13:05:30.189Z,101339.13
2023-03-16T13:08:11.005Z,101330.09
2023-03-16T13:10:41.990Z,101328.84
2023-03-16T13:13:11.574Z,101334.31
2023-03-16T13:16:05.016Z,101335.38
2023-03-16T13:18:38.801Z,101327.53
2023-03-16T13:21:17.954Z,101328.00
2023-03-16T13:23:56.461Z,101317.50
2023-03-16T13:26:38.838Z,101312.25
2023-03-16T13:29:19.712Z,101315.81
2023-03-16T13:31:47.676Z,101327.75
2023-03-16T13:34:19.967Z,101313.94
2023-03-16T13:36:47.844Z,101309.75
2023-03-16T13:39:15.307Z,101307.91
2023-03-16T13:41:43.553Z,101301.91
2023-03-16T13:44:19.014Z,101297.78
2023-03-16T13:46:48.340Z,101297.50
2023-03-16T13:49:15.851Z,101298.88
2023-03-16T13:51:43.963Z,101296.94
2023-03-16T13:54:17.487Z,101303.97
2023-03-16T13:56:45.537Z,101298.16
2023-03-16T13:59:13.616Z,101291.63
2023-03-16T14:01:44.317Z,101294.00
2023-03-16T14:04:16.057Z,101289.28
2023-03-16T14:06:52.013Z,101279.56
2023-03-16T14:09:22.011Z,101307.31
2023-03-16T14:11:49.546Z,101293.53
2023-03-16T14:14:21.873Z,101285.66
2023-03-16T14:16:49.636Z,101284.75
2023-03-16T14:19:25.950Z,101281.53
2023-03-16T14:21:53.442Z,101284.44
2023-03-16T14:24:29.652Z,101278.97
2023-03-16T14:26:58.490Z,101278.28
2023-03-16T14:29:28.469Z,101294.91
2023-03-16T14:31:56.624Z,101281.69
2023-03-16T14:34:27.156Z,101285.13
2023-03-16T14:37:05.300Z,101286.28
2023-03-16T14:39:33.543Z,101283.63
2023-03-16T14:42:05.594Z,101294.22
2023-03-16T14:44:35.624Z,101293.09
2023-03-16T14:47:05.144Z,101281.44
2023-03-16T14:49:34.787Z,101287.09
2023-03-16T14:52:06.366Z,101287.91
2023-03-16T14:54:33.934Z,101285.13
2023-03-16T14:57:02.915Z,101292.31
2023-03-16T14:59:30.469Z,101303.13
2023-03-16T15:01:59.413Z,101297.78
2023-03-16T15:04:28.966Z,101296.34
2023-03-16T15:06:57.844Z,101302.38
2023-03-16T15:09:31.614Z,101307.25
2023-03-16T15:11:59.132Z,101308.94
2023-03-16T15:14:45.278Z,101298.44
2023-03-16T15:17:12.793Z,101296.13
2023-03-16T15:19:40.270Z,101296.94
2023-03-16T15:22:07.840Z,101298.81
2023-03-16T15:24:35.292Z,101299.66
2023-03-16T15:27:02.866Z,101303.19
2023-03-16T15:29:30.425Z,101295.78
2023-03-16T15:31:57.948Z,101295.59
2023-03-16T15:34:27.539Z,101303.00
2023-03-16T15:36:55.119Z,101299.06
2023-03-16T15:39:25.232Z,101295.16
2023-03-16T15:41:52.774Z,101294.59
2023-03-16T15:44:20.256Z,101294.31
2023-03-16T15:46:48.059Z,101293.47
2023-03-16T15:49:15.599Z,101300.16
2023-03-16T15:51:43.124Z,101299.13
2023-03-16T15:54:12.337Z,101303.00
2023-03-16T15:56:53.200Z,101300.25
2023-03-16T15:59:23.525Z,101313.81
2023-03-16T16:01:52.559Z,101314.72
2023-03-16T16:04:21.824Z,101308.81
2023-03-16T16:06:50.263Z,101307.72
2023-03-16T16:09:17.891Z,101322.00
2023-03-16T16:11:47.315Z,101317.75
2023-03-16T16:14:15.962Z,101323.84
2023-03-16T16:16:44.972Z,101322.00
2023-03-16T16:19:15.963Z,101326.63
2023-03-16T16:21:43.995Z,101324.13
2023-03-16T16:24:11.589Z,101316.22
2023-03-16T16:26:52.914Z,101328.97
2023-03-16T16:29:23.899Z,101324.63
2023-03-16T16:31:54.533Z,101322.34
2023-03-16T16:34:24.890Z,101331.00
2023-03-16T16:36:56.533Z,101326.00
2023-03-16T16:39:24.404Z,101327.50
2023-03-16T16:41:54.600Z,101321.88
2023-03-16T16:44:27.466Z,101328.28
2023-03-16T16:46:55.370Z,101331.47
2023-03-16T16:49:30.940Z,101329.34
2023-03-16T16:51:58.636Z,101341.75
2023-03-16T16:54:28.513Z,101338.22
2023-03-16T16:56:57.364Z,101341.31
2023-03-16T16:59:27.910Z,101347.31
2023-03-16T17:01:56.721Z,101356.41
2023-03-16T17:04:25.828Z,101354.06
2023-03-16T17:06:55.893Z,101362.41
2023-03-16T17:09:23.601Z,101363.09
2023-03-16T17:11:51.650Z,101359.31
2023-03-16T17:14:20.392Z,101367.03
2023-03-16T17:16:49.968Z,101362.09
2023-03-16T17:19:19.140Z,101370.81
2023-03-16T17:21:46.716Z,101368.31
2023-03-16T17:24:14.219Z,101373.94
2023-03-16T17:26:43.963Z,101373.97
2023-03-16T17:29:17.649Z,101375.50
2023-03-16T17:31:45.107Z,101379.66
2023-03-16T17:34:23.379Z,101389.22
2023-03-16T17:36:51.462Z,101388.66
2023-03-16T17:39:21.241Z,101391.38
2023-03-16T17:41:50.492Z,101396.94
2023-03-16T17:44:20.221Z,101400.47
2023-03-16T17:46:48.125Z,101396.38
2023-03-16T17:49:20.714Z,101392.03
2023-03-16T17:51:48.283Z,101398.19
2023-03-16T17:54:15.828Z,101393.97
2023-03-16T17:56:43.515Z,101400.03
2023-03-16T17:59:19.173Z,101400.53
2023-03-16T18:01:47.287Z,101411.78
2023-03-16T18:04:22.314Z,101417.75
2023-03-16T18:06:51.282Z,101416.66
2023-03-16T18:09:19.781Z,101420.75
2023-03-16T18:11:48.451Z,101417.13
2023-03-16T18:14:25.505Z,101424.81
2023-03-16T18:16:54.745Z,101421.13
2023-03-16T18:19:25.577Z,101426.97
2023-03-16T18:21:53.851Z,101438.72
2023-03-16T18:24:25.781Z,101442.63
2023-03-16T18:26:53.645Z,101436.06
2023-03-16T18:29:22.507Z,101442.06
2023-03-16T18:31:51.962Z,101453.25
2023-03-16T18:34:21.676Z,101451.38
2023-03-16T18:36:50.017Z,101449.44
2023-03-16T18:39:20.391Z,101460.78
2023-03-16T18:41:48.345Z,101461.78
2023-03-16T18:44:20.753Z,101463.81
2023-03-16T18:46:49.626Z,101466.66
2023-03-16T18:49:17.346Z,101465.81
2023-03-16T18:51:47.181Z,101471.22
2023-03-16T18:54:20.617Z,101470.03
2023-03-16T18:56:48.699Z,101474.25
2023-03-16T18:59:16.796Z,101468.22
2023-03-16T19:01:45.023Z,101478.88
2023-03-16T19:04:29.572Z,101483.75
2023-03-16T19:06:57.600Z,101481.31
2023-03-16T19:09:29.371Z,101487.53
2023-03-16T19:11:57.316Z,101483.22
2023-03-16T19:14:27.076Z,101492.59
2023-03-16T19:16:55.055Z,101489.94
2023-03-16T19:19:23.493Z,101491.75
2023-03-16T19:21:56.537Z,101489.25
2023-03-16T19:24:24.128Z,101497.72
2023-03-16T19:26:52.123Z,101489.66
2023-03-16T19:29:22.196Z,101498.19
2023-03-16T19:31:50.180Z,101495.63
2023-03-16T19:34:18.274Z,101502.69
2023-03-16T19:36:46.004Z,101504.63
2023-03-16T19:39:14.523Z,101507.09
2023-03-16T19:41:42.278Z,101510.19
2023-03-16T19:44:17.749Z,101524.28
2023-03-16T19:46:45.919Z,101525.66
2023-03-16T19:49:20.413Z,101523.84
2023-03-16T19:51:49.090Z,101519.41
2023-03-16T19:54:32.188Z,101525.13
2023-03-16T19:57:01.402Z,101519.97
2023-03-16T19:59:31.285Z,101524.63
2023-03-16T20:01:58.880Z,101528.09
2023-03-16T20:04:26.963Z,101527.97
2023-03-16T20:06:54.601Z,101531.16
2023-03-16T20:09:22.665Z,101538.69
2023-03-16T20:11:50.403Z,101543.13
2023-03-16T20:14:21.033Z,101542.06
2023-03-16T20:16:48.766Z,101546.44
2023-03-16T20:19:16.384Z,101550.69
2023-03-16T20:21:44.017Z,101555.59
2023-03-16T20:24:19.201Z,101557.97
2023-03-16T20:26:48.067Z,101560.19
2023-03-16T20:29:19.716Z,101557.63
2023-03-16T20:31:47.732Z,101563.72
2023-03-16T20:34:20.985Z,101565.56
2023-03-16T20:36:48.662Z,101572.16
2023-03-16T20:39:16.209Z,101566.41
2023-03-16T20:41:43.981Z,101569.63
2023-03-16T20:44:14.034Z,101572.69
2023-03-16T20:46:42.002Z,101570.38
2023-03-16T20:49:28.774Z,101569.59
2023-03-16T20:51:56.707Z,101579.44
2023-03-16T20:54:24.725Z,101583.91
2023-03-16T20:56:52.387Z,101582.63
2023-03-16T20:59:24.031Z,101573.34
2023-03-16T21:01:54.751Z,101580.28
2023-03-16T21:04:27.416Z,101582.31
2023-03-16T21:06:55.961Z,101591.38
2023-03-16T21:09:23.665Z,101593.88
2023-03-16T21:11:51.789Z,101600.47
2023-03-16T21:14:23.786Z,101598.66
2023-03-16T21:16:52.582Z,101597.06
2023-03-16T21:19:21.857Z,101604.22
2023-03-16T21:21:49.485Z,101598.81
2023-03-16T21:24:17.221Z,101596.22
2023-03-16T21:26:45.304Z,101588.34
2023-03-16T21:29:15.938Z,101588.16
2023-03-16T21:31:43.595Z,101589.53
2023-03-16T21:34:21.922Z,101585.91
2023-03-16T21:36:49.481Z,101597.38
2023-03-16T21:39:22.634Z,101596.31
2023-03-16T21:41:50.959Z,101588.38
2023-03-16T21:44:18.677Z,101597.84
2023-03-16T21:46:47.568Z,101603.50
2023-03-16T21:49:15.961Z,101599.34
2023-03-16T21:51:43.916Z,101601.09
2023-03-16T21:54:15.226Z,101601.53
2023-03-16T21:56:43.137Z,101605.25
2023-03-16T21:59:11.435Z,101603.09
2023-03-16T22:01:54.427Z,101601.03
2023-03-16T22:04:27.573Z,101605.28
2023-03-16T22:06:55.416Z,101610.44
2023-03-16T22:09:25.071Z,101609.13
2023-03-16T22:11:52.787Z,101617.72
2023-03-16T22:14:20.497Z,101621.78
2023-03-16T22:16:48.144Z,101627.94
2023-03-16T22:19:18.225Z,101619.44
2023-03-16T22:21:47.400Z,101623.03
2023-03-16T22:24:20.120Z,101621.72
2023-03-16T22:26:49.096Z,101626.94
2023-03-16T22:29:21.737Z,101623.22
2023-03-16T22:31:51.480Z,101620.91
2023-03-16T22:34:34.531Z,101611.25
2023-03-16T22:37:02.600Z,101614.59
2023-03-16T22:39:34.960Z,101612.38
2023-03-16T22:42:02.941Z,101605.06
2023-03-16T22:44:30.530Z,101606.84
2023-03-16T22:46:58.040Z,101611.94
2023-03-16T22:49:27.267Z,101614.09
2023-03-16T22:51:56.623Z,101617.59
2023-03-16T22:54:26.192Z,101620.34
2023-03-16T22:56:53.764Z,101614.81
2023-03-16T22:59:22.847Z,101617.84
2023-03-16T23:01:50.573Z,101613.34
2023-03-16T23:04:20.109Z,101612.75
2023-03-16T23:06:49.335Z,101618.25
2023-03-16T23:09:17.401Z,101619.03
2023-03-16T23:11:46.455Z,101619.78
2023-03-16T23:14:14.363Z,101623.22
2023-03-16T23:16:42.035Z,101620.66
2023-03-16T23:19:26.307Z,101609.47
2023-03-16T23:21:55.200Z,101613.34
2023-03-16T23:24:23.386Z,101615.78
2023-03-16T23:26:52.427Z,101617.91
2023-03-16T23:29:21.033Z,101614.03
2023-03-16T23:31:49.274Z,101613.72
2023-03-16T23:34:18.861Z,101611.81
2023-03-16T23:36:46.631Z,101608.97
2023-03-16T23:39:14.521Z,101619.03
2023-03-16T23:41:42.868Z,101611.44
2023-03-16T23:44:21.589Z,101611.06
2023-03-16T23:46:49.272Z,101609.53
2023-03-16T23:49:22.424Z,101613.66
2023-03-16T23:51:51.125Z,101612.94
2023-03-16T23:54:19.244Z,101609.31
2023-03-16T23:56:47.155Z,101615.19
2023-03-16T23:59:14.800Z,101612.50
